Accueil
METAR-TAF:

METAR-TAF

Aéroports :

Col de Resia, Italie

latitude: 46-50N, longitude: 010-30E, altitude: 1800 m

Observation

Le bulletin a été fait il y a 1 heure et 22 minutes, à 17:55 UTC
Vent 4 kt de nord/nord-est
Température 8°C
Humidité 81%
Pression 1016 hPa
Visibilité 10 km ou plus
Nuages épars à une hauteur de 2200 ft
Nuages fragmentés à une hauteur de 2500 ft
pluie faible

METAR: LIVE 121755Z 03004KT 9999 -RA SCT022 BKN025 08/05 Q1016 RMK OVC VIS MIN 9999

Heure: 21:17 (19:17 UTC)


TAF: absent

Observations et prévisions météorologiques de plus de 4000 aéroports (messages METAR et TAF).

Les stations disponibles sont représentées par des disques jaunes et rouges sur la carte.

Passer la souris dessus pour voir le nom de la station.

Cliquer dessus pour voir les observations et prévisions météorologiques.

Pour changer de carte: cliquez sur les boutons verts avec une croix noire pour zoomer, sur le bouton vert avec un tiret pour effectuer un zoom arrière, ou sur les flèches vertes pour les cartes adjacentes.


METAR-TAF: